Cusseta, Alabama
Current Conditions -  °F | °C
As of 12:15 PM on Thursday 23 Oct 2014 (Local Time) from KAUO Reporting Station
Clear Clear  
Wind Chill: 64°   Ceiling: Unl
Heat Index: 64°   Visibility: 10mi
Dew Point: 43°   Wind: 5mph
Humidity: 45%   Direction: 340°NNW
Pressure: 30.15"   Gusts: NA
Location:  32.79°N, 85.31°W
Report Text: KAUO 231715Z AUTO 34004KT 10SM CLR 18/06 A3015 RMK AO1
Loading
Personal Weather Stations






























Interactive Weather Map
Tropical Storm Tracking
New forecast layout! Learn more

10-Day Weather Forecast

Advertisements
Track Severe Weather on mobile